createdAt,value
2018-09-22T00:02:19.336Z,8.57
2018-09-22T00:04:48.060Z,5.70
2018-09-22T00:07:17.440Z,9.83
2018-09-22T00:09:46.314Z,8.97
2018-09-22T00:12:15.264Z,6.77
2018-09-22T00:14:44.205Z,7.13
2018-09-22T00:17:13.069Z,7.93
2018-09-22T00:19:42.164Z,10.63
2018-09-22T00:22:17.138Z,11.80
2018-09-22T00:24:45.860Z,9.70
2018-09-22T00:27:14.415Z,6.47
2018-09-22T00:29:43.048Z,6.73
2018-09-22T00:32:11.786Z,9.40
2018-09-22T00:34:40.328Z,8.30
2018-09-22T00:37:08.905Z,10.27
2018-09-22T00:39:37.631Z,7.37
2018-09-22T00:42:06.990Z,11.47
2018-09-22T00:44:35.701Z,9.23
2018-09-22T00:47:04.526Z,9.77
2018-09-22T00:49:33.225Z,6.20
2018-09-22T00:52:02.365Z,11.60
2018-09-22T00:54:31.085Z,9.03
2018-09-22T00:56:59.662Z,8.30
2018-09-22T00:59:28.737Z,14.17
2018-09-22T01:01:58.437Z,7.70
2018-09-22T01:04:27.028Z,6.43
2018-09-22T01:06:55.775Z,7.83
2018-09-22T01:09:24.462Z,8.77
2018-09-22T01:11:53.194Z,8.23
2018-09-22T01:14:21.778Z,7.63
2018-09-22T01:16:50.644Z,11.50
2018-09-22T01:19:19.181Z,11.60
2018-09-22T01:21:48.007Z,5.70
2018-09-22T01:24:16.800Z,8.03
2018-09-22T01:26:45.329Z,6.97
2018-09-22T01:29:16.319Z,7.67
2018-09-22T01:31:45.600Z,9.30
2018-09-22T01:34:14.341Z,8.73
2018-09-22T01:36:43.997Z,7.13
2018-09-22T01:39:13.816Z,8.97
2018-09-22T01:41:42.637Z,12.70
2018-09-22T01:44:11.574Z,6.20
2018-09-22T01:46:40.231Z,7.33
2018-09-22T01:49:08.776Z,8.20
2018-09-22T01:51:37.335Z,7.73
2018-09-22T01:54:06.219Z,6.60
2018-09-22T01:56:35.015Z,6.10
2018-09-22T01:59:04.624Z,9.53
2018-09-22T02:01:33.304Z,8.00
2018-09-22T02:04:01.935Z,8.53
2018-09-22T02:06:30.674Z,10.70
2018-09-22T02:09:00.421Z,7.43
2018-09-22T02:11:29.058Z,10.98
2018-09-22T02:13:57.669Z,9.10
2018-09-22T02:16:26.364Z,9.87
2018-09-22T02:18:54.845Z,9.23
2018-09-22T02:21:23.533Z,6.73
2018-09-22T02:23:52.161Z,6.73
2018-09-22T02:26:20.831Z,7.47
2018-09-22T02:28:49.457Z,8.73
2018-09-22T02:31:18.203Z,8.30
2018-09-22T02:33:46.765Z,6.37
2018-09-22T02:36:15.337Z,7.00
2018-09-22T02:38:44.070Z,7.37
2018-09-22T02:41:12.597Z,6.80
2018-09-22T02:43:41.225Z,9.37
2018-09-22T02:46:09.947Z,5.53
2018-09-22T02:48:38.661Z,5.07
2018-09-22T02:51:08.029Z,9.80
2018-09-22T02:53:36.835Z,9.27
2018-09-22T02:56:05.391Z,8.63
2018-09-22T02:58:34.522Z,6.70
2018-09-22T03:01:03.730Z,6.03
2018-09-22T03:03:32.461Z,9.80
2018-09-22T03:06:01.211Z,8.10
2018-09-22T03:08:30.001Z,8.27
2018-09-22T03:10:58.582Z,6.60
2018-09-22T03:13:28.224Z,4.80
2018-09-22T03:15:56.977Z,5.40
2018-09-22T03:18:25.569Z,8.40
2018-09-22T03:20:54.107Z,6.40
2018-09-22T03:23:22.875Z,5.07
2018-09-22T03:25:51.741Z,7.60
2018-09-22T03:28:20.332Z,8.67
2018-09-22T03:30:48.923Z,7.27
2018-09-22T03:33:17.457Z,7.10
2018-09-22T03:35:46.043Z,8.87
2018-09-22T03:38:15.315Z,6.67
2018-09-22T03:40:43.903Z,6.80
2018-09-22T03:43:12.577Z,6.53
2018-09-22T03:45:41.155Z,4.50
2018-09-22T03:48:09.705Z,5.47
2018-09-22T03:50:38.235Z,7.50
2018-09-22T03:53:06.873Z,5.57
2018-09-22T03:55:35.465Z,7.03
2018-09-22T03:58:04.042Z,9.53
2018-09-22T04:00:32.798Z,9.03
2018-09-22T04:03:01.275Z,6.70
2018-09-22T04:05:29.776Z,7.07
2018-09-22T04:07:58.561Z,8.50
2018-09-22T04:10:27.094Z,8.97
2018-09-22T04:12:55.679Z,7.77
2018-09-22T04:15:24.407Z,5.03
2018-09-22T04:17:52.922Z,7.13
2018-09-22T04:20:21.645Z,7.60
2018-09-22T04:22:50.813Z,8.40
2018-09-22T04:25:19.346Z,6.90
2018-09-22T04:27:47.877Z,7.97
2018-09-22T04:30:16.579Z,7.50
2018-09-22T04:32:45.221Z,7.13
2018-09-22T04:35:13.714Z,6.60
2018-09-22T04:37:42.430Z,10.17
2018-09-22T04:40:11.006Z,6.87
2018-09-22T04:42:39.592Z,6.63
2018-09-22T04:45:08.392Z,8.73
2018-09-22T04:47:36.953Z,10.10
2018-09-22T04:50:05.528Z,9.03
2018-09-22T04:52:34.384Z,8.27
2018-09-22T04:55:03.192Z,6.90
2018-09-22T04:57:32.226Z,7.50
2018-09-22T05:00:01.050Z,7.03
2018-09-22T05:02:29.714Z,6.43
2018-09-22T05:04:58.276Z,9.90
2018-09-22T05:07:27.065Z,6.40
2018-09-22T05:10:02.281Z,9.70
2018-09-22T05:12:31.581Z,7.10
2018-09-22T05:15:00.213Z,8.77
2018-09-22T05:17:29.181Z,5.13
2018-09-22T05:19:57.937Z,4.90
2018-09-22T05:22:26.500Z,6.40
2018-09-22T05:24:55.096Z,6.00
2018-09-22T05:27:23.941Z,6.40
2018-09-22T05:29:52.705Z,7.13
2018-09-22T05:32:21.425Z,6.53
2018-09-22T05:34:50.229Z,7.07
2018-09-22T05:37:19.115Z,6.07
2018-09-22T05:39:47.731Z,5.63
2018-09-22T05:42:17.694Z,6.30
2018-09-22T05:44:46.385Z,8.93
2018-09-22T05:47:15.442Z,5.53
2018-09-22T05:49:45.304Z,5.90
2018-09-22T05:52:13.801Z,5.87
2018-09-22T05:54:42.665Z,5.70
2018-09-22T05:57:11.795Z,5.33
2018-09-22T05:59:40.515Z,4.87
2018-09-22T06:02:09.363Z,5.90
2018-09-22T06:04:38.077Z,4.47
2018-09-22T06:07:06.659Z,3.40
2018-09-22T06:09:35.360Z,8.23
2018-09-22T06:12:04.035Z,6.70
2018-09-22T06:14:32.917Z,4.90
2018-09-22T06:17:01.678Z,3.53
2018-09-22T06:19:30.830Z,5.63
2018-09-22T06:21:59.570Z,3.00
2018-09-22T06:24:28.528Z,3.23
2018-09-22T06:26:58.427Z,4.67
2018-09-22T06:29:27.190Z,2.87
2018-09-22T06:31:55.826Z,4.43
2018-09-22T06:34:24.836Z,4.40
2018-09-22T06:36:54.497Z,4.17
2018-09-22T06:39:23.076Z,6.13
2018-09-22T06:41:53.022Z,4.73
2018-09-22T06:44:21.569Z,4.23
2018-09-22T06:46:50.210Z,2.90
2018-09-22T06:49:18.978Z,4.43
2018-09-22T06:51:47.519Z,6.67
2018-09-22T06:54:17.285Z,5.90
2018-09-22T06:56:46.094Z,6.70
2018-09-22T06:59:14.713Z,3.57
2018-09-22T07:01:43.344Z,3.73
2018-09-22T07:04:12.162Z,5.53
2018-09-22T07:06:41.842Z,3.27
2018-09-22T07:09:10.481Z,2.73
2018-09-22T07:11:39.373Z,3.33
2018-09-22T07:14:08.096Z,4.63
2018-09-22T07:16:36.725Z,4.17
2018-09-22T07:19:05.610Z,2.87
2018-09-22T07:21:39.501Z,4.00
2018-09-22T07:24:08.218Z,4.93
2018-09-22T07:26:36.761Z,1.20
2018-09-22T07:29:05.260Z,2.90
2018-09-22T07:31:34.116Z,5.27
2018-09-22T07:34:02.731Z,2.63
2018-09-22T07:36:31.422Z,4.17
2018-09-22T07:39:00.253Z,1.53
2018-09-22T07:41:28.856Z,4.73
2018-09-22T07:43:57.618Z,3.77
2018-09-22T07:46:26.546Z,2.67
2018-09-22T07:48:55.117Z,3.67
2018-09-22T07:51:23.678Z,1.20
2018-09-22T07:53:53.435Z,2.90
2018-09-22T07:56:23.040Z,3.03
2018-09-22T07:58:51.890Z,2.13
2018-09-22T08:01:20.626Z,4.07
2018-09-22T08:03:49.195Z,1.93
2018-09-22T08:06:17.769Z,2.90
2018-09-22T08:08:47.345Z,2.00
2018-09-22T08:11:16.102Z,4.33
2018-09-22T08:13:44.651Z,3.30
2018-09-22T08:16:13.386Z,5.17
2018-09-22T08:18:41.895Z,3.20
2018-09-22T08:21:10.583Z,1.63
2018-09-22T08:23:40.174Z,5.20
2018-09-22T08:26:09.228Z,2.87
2018-09-22T08:28:37.815Z,3.47
2018-09-22T08:31:06.789Z,4.20
2018-09-22T08:33:35.489Z,1.80
2018-09-22T08:36:04.221Z,3.67
2018-09-22T08:38:32.931Z,5.00
2018-09-22T08:41:01.514Z,3.33
2018-09-22T08:43:30.033Z,3.73
2018-09-22T08:45:59.445Z,3.23
2018-09-22T08:48:28.093Z,5.17
2018-09-22T08:50:56.777Z,5.40
2018-09-22T08:53:25.419Z,3.93
2018-09-22T08:55:54.018Z,4.27
2018-09-22T08:58:22.773Z,1.03
2018-09-22T09:00:51.781Z,4.43
2018-09-22T09:03:21.186Z,5.40
2018-09-22T09:05:49.920Z,3.40
2018-09-22T09:08:18.869Z,3.10
2018-09-22T09:10:49.150Z,3.10
2018-09-22T09:13:18.168Z,3.93
2018-09-22T09:15:47.212Z,5.20
2018-09-22T09:18:15.828Z,4.83
2018-09-22T09:20:45.591Z,3.93
2018-09-22T09:23:14.282Z,2.37
2018-09-22T09:25:42.802Z,3.47
2018-09-22T09:28:12.914Z,4.57
2018-09-22T09:30:41.991Z,2.87
2018-09-22T09:33:12.237Z,2.60
2018-09-22T09:35:40.998Z,4.33
2018-09-22T09:38:09.916Z,6.70
2018-09-22T09:40:38.535Z,3.67
2018-09-22T09:43:07.700Z,5.30
2018-09-22T09:45:36.677Z,3.33
2018-09-22T09:48:05.178Z,3.43
2018-09-22T09:50:34.053Z,4.23
2018-09-22T09:53:04.230Z,6.03
2018-09-22T09:55:32.834Z,3.00
2018-09-22T09:58:02.482Z,3.17
2018-09-22T10:00:36.495Z,4.00
2018-09-22T10:03:05.081Z,3.07
2018-09-22T10:05:33.735Z,2.30
2018-09-22T10:08:02.391Z,2.30
2018-09-22T10:10:30.995Z,3.70
2018-09-22T10:12:59.721Z,3.17
2018-09-22T10:15:28.282Z,5.03
2018-09-22T10:17:56.967Z,7.27
2018-09-22T10:20:25.678Z,0.93
2018-09-22T10:22:54.292Z,2.20
2018-09-22T10:25:22.942Z,4.50
2018-09-22T10:27:52.607Z,1.20
2018-09-22T10:30:21.214Z,1.87
2018-09-22T10:32:51.031Z,1.27
2018-09-22T10:35:19.752Z,2.50
2018-09-22T10:37:49.289Z,1.30
2018-09-22T10:40:17.947Z,2.20
2018-09-22T10:42:46.694Z,5.70
2018-09-22T10:45:15.334Z,2.77
2018-09-22T10:47:44.018Z,4.43
2018-09-22T10:50:13.581Z,1.93
2018-09-22T10:52:42.184Z,1.43
2018-09-22T10:55:10.757Z,2.40
2018-09-22T10:57:39.246Z,2.67
2018-09-22T11:00:07.995Z,1.40
2018-09-22T11:02:36.533Z,3.57
2018-09-22T11:05:05.487Z,2.23
2018-09-22T11:07:34.065Z,1.90
2018-09-22T11:10:02.719Z,1.50
2018-09-22T11:12:31.296Z,2.30
2018-09-22T11:15:01.320Z,1.40
2018-09-22T11:17:30.377Z,2.40
2018-09-22T11:19:59.304Z,3.30
2018-09-22T11:22:27.941Z,3.60
2018-09-22T11:24:56.625Z,3.10
2018-09-22T11:27:25.279Z,1.30
2018-09-22T11:29:54.009Z,2.47
2018-09-22T11:32:23.603Z,4.40
2018-09-22T11:34:52.436Z,3.83
2018-09-22T11:37:21.721Z,2.43
2018-09-22T11:39:50.313Z,2.30
2018-09-22T11:42:18.903Z,5.03
2018-09-22T11:44:47.514Z,4.77
2018-09-22T11:47:16.132Z,3.13
2018-09-22T11:49:44.764Z,2.73
2018-09-22T11:52:13.381Z,2.57
2018-09-22T11:54:42.846Z,5.77
2018-09-22T11:57:11.534Z,4.97
2018-09-22T11:59:40.139Z,5.33
2018-09-22T12:02:08.775Z,3.20
2018-09-22T12:04:37.500Z,1.63
2018-09-22T12:07:06.185Z,1.57
2018-09-22T12:09:34.894Z,3.03
2018-09-22T12:12:03.576Z,3.77
2018-09-22T12:14:32.123Z,1.40
2018-09-22T12:17:00.674Z,3.33
2018-09-22T12:19:29.270Z,2.93
2018-09-22T12:21:57.934Z,3.70
2018-09-22T12:24:26.589Z,6.07
2018-09-22T12:26:55.159Z,2.73
2018-09-22T12:29:24.337Z,1.57
2018-09-22T12:31:53.047Z,4.13
2018-09-22T12:34:21.703Z,6.20
2018-09-22T12:36:50.393Z,3.93
2018-09-22T12:39:19.981Z,2.77
2018-09-22T12:41:48.682Z,4.17
2018-09-22T12:44:17.470Z,3.83
2018-09-22T12:46:46.083Z,2.70
2018-09-22T12:49:14.691Z,4.20
2018-09-22T12:51:43.345Z,3.67
2018-09-22T12:54:11.966Z,5.67
2018-09-22T12:56:40.629Z,5.67
2018-09-22T12:59:09.550Z,5.60
2018-09-22T13:01:38.214Z,6.50
2018-09-22T13:04:06.847Z,6.97
2018-09-22T13:06:35.453Z,3.40
2018-09-22T13:09:05.280Z,4.70
2018-09-22T13:11:36.238Z,3.17
2018-09-22T13:14:05.306Z,2.63
2018-09-22T13:16:34.237Z,2.77
2018-09-22T13:19:02.966Z,5.33
2018-09-22T13:21:31.549Z,4.10
2018-09-22T13:24:00.174Z,4.70
2018-09-22T13:26:28.878Z,4.47
2018-09-22T13:28:57.553Z,3.57
2018-09-22T13:31:26.266Z,2.93
2018-09-22T13:33:54.935Z,2.13
2018-09-22T13:36:23.711Z,3.83
2018-09-22T13:38:52.233Z,4.40
2018-09-22T13:41:20.969Z,3.50
2018-09-22T13:43:49.616Z,2.47
2018-09-22T13:46:18.491Z,3.27
2018-09-22T13:48:47.236Z,3.97
2018-09-22T13:51:15.955Z,4.67
2018-09-22T13:53:44.545Z,4.80
2018-09-22T13:56:13.202Z,3.03
2018-09-22T13:58:41.863Z,3.63
2018-09-22T14:01:11.498Z,3.83
2018-09-22T14:03:41.411Z,4.20
2018-09-22T14:06:10.893Z,2.30
2018-09-22T14:08:39.601Z,4.43
2018-09-22T14:11:08.351Z,4.30
2018-09-22T14:13:36.977Z,4.83
2018-09-22T14:16:05.572Z,2.83
2018-09-22T14:18:34.942Z,4.07
2018-09-22T14:21:03.584Z,4.33
2018-09-22T14:23:33.307Z,3.00
2018-09-22T14:26:02.042Z,2.37
2018-09-22T14:28:30.750Z,1.20
2018-09-22T14:30:59.557Z,3.67
2018-09-22T14:33:28.380Z,3.07
2018-09-22T14:35:57.013Z,2.13
2018-09-22T14:38:25.638Z,4.90
2018-09-22T14:40:54.373Z,3.80
2018-09-22T14:43:23.125Z,2.40
2018-09-22T14:45:51.816Z,4.03
2018-09-22T14:48:21.159Z,4.53
2018-09-22T14:50:50.584Z,3.43
2018-09-22T14:53:19.900Z,4.23
2018-09-22T14:55:48.672Z,5.90
2018-09-22T14:58:17.404Z,3.73
2018-09-22T15:00:46.052Z,3.30
2018-09-22T15:03:14.837Z,2.43
2018-09-22T15:05:43.335Z,3.77
2018-09-22T15:08:12.090Z,4.90
2018-09-22T15:10:40.954Z,2.57
2018-09-22T15:13:09.573Z,1.90
2018-09-22T15:15:38.132Z,3.27
2018-09-22T15:18:06.992Z,5.33
2018-09-22T15:20:36.125Z,2.83
2018-09-22T15:23:04.833Z,3.00
2018-09-22T15:25:33.561Z,4.00
2018-09-22T15:28:02.202Z,4.40
2018-09-22T15:30:31.881Z,2.20
2018-09-22T15:33:00.612Z,3.37
2018-09-22T15:35:30.384Z,3.27
2018-09-22T15:37:58.904Z,4.73
2018-09-22T15:40:27.675Z,4.23
2018-09-22T15:42:56.591Z,3.13
2018-09-22T15:45:26.092Z,8.40
2018-09-22T15:47:54.802Z,4.83
2018-09-22T15:50:23.383Z,7.50
2018-09-22T15:52:52.021Z,4.17
2018-09-22T15:55:20.731Z,24.10
2018-09-22T15:57:49.521Z,8.40
2018-09-22T16:00:18.179Z,7.27
2018-09-22T16:02:46.990Z,5.33
2018-09-22T16:05:15.537Z,4.40
2018-09-22T16:07:44.107Z,3.60
2018-09-22T16:10:13.476Z,3.43
2018-09-22T16:12:41.994Z,3.03
2018-09-22T16:15:11.717Z,2.50
2018-09-22T16:17:40.526Z,3.40
2018-09-22T16:20:10.213Z,5.50
2018-09-22T16:22:38.911Z,5.27
2018-09-22T16:25:07.879Z,4.83
2018-09-22T16:27:36.856Z,5.20
2018-09-22T16:30:05.915Z,4.53
2018-09-22T16:32:34.669Z,5.67
2018-09-22T16:35:03.500Z,7.30
2018-09-22T16:37:32.260Z,4.00
2018-09-22T16:40:01.142Z,3.20
2018-09-22T16:42:30.726Z,5.23
2018-09-22T16:44:59.250Z,2.97
2018-09-22T16:47:27.918Z,5.03
2018-09-22T16:49:56.556Z,5.80
2018-09-22T16:53:31.825Z,4.37
2018-09-22T16:56:00.693Z,6.40
2018-09-22T16:58:30.565Z,5.10
2018-09-22T17:00:59.209Z,5.03
2018-09-22T17:03:27.843Z,11.93
2018-09-22T17:05:56.528Z,5.97
2018-09-22T17:08:25.385Z,8.43
2018-09-22T17:10:54.035Z,4.93
2018-09-22T17:13:22.612Z,4.50
2018-09-22T17:15:51.424Z,8.60
2018-09-22T17:18:19.988Z,7.43
2018-09-22T17:23:24.103Z,6.70
2018-09-22T17:25:52.784Z,9.63
2018-09-22T17:28:21.327Z,5.73
2018-09-22T17:30:50.038Z,4.17
2018-09-22T17:33:18.698Z,5.33
2018-09-22T17:35:47.729Z,6.27
2018-09-22T17:38:16.746Z,4.70
2018-09-22T17:40:45.536Z,4.73
2018-09-22T17:43:14.066Z,4.53
2018-09-22T17:45:42.808Z,4.80
2018-09-22T17:48:12.435Z,6.47
2018-09-22T17:50:42.332Z,3.83
2018-09-22T17:53:11.018Z,4.73
2018-09-22T17:55:39.716Z,6.17
2018-09-22T17:58:08.324Z,6.13
2018-09-22T18:00:37.218Z,5.57
2018-09-22T18:03:06.770Z,4.63
2018-09-22T18:05:35.341Z,3.83
2018-09-22T18:08:04.074Z,4.43
2018-09-22T18:10:32.803Z,6.33
2018-09-22T18:13:01.493Z,5.67
2018-09-22T18:15:30.773Z,4.77
2018-09-22T18:17:59.406Z,5.53
2018-09-22T18:20:28.197Z,6.20
2018-09-22T18:22:57.908Z,7.30
2018-09-22T18:25:27.513Z,5.03
2018-09-22T18:27:56.111Z,4.70
2018-09-22T18:30:24.746Z,6.73
2018-09-22T18:32:53.345Z,6.67
2018-09-22T18:35:21.943Z,8.50
2018-09-22T18:37:50.483Z,7.07
2018-09-22T18:40:20.100Z,7.87
2018-09-22T18:42:48.811Z,11.90
2018-09-22T18:45:17.400Z,9.30
2018-09-22T18:47:45.932Z,8.70
2018-09-22T18:50:14.523Z,9.47
2018-09-22T18:52:43.258Z,6.53
2018-09-22T18:55:11.844Z,6.10
2018-09-22T18:57:40.391Z,7.73
2018-09-22T19:00:09.266Z,6.93
2018-09-22T19:02:37.881Z,5.87
2018-09-22T19:05:06.521Z,10.03
2018-09-22T19:07:35.217Z,8.97
2018-09-22T19:10:03.892Z,6.92
2018-09-22T19:12:32.707Z,9.37
2018-09-22T19:15:11.717Z,8.73
2018-09-22T19:17:48.218Z,8.70
2018-09-22T19:20:20.185Z,7.47
2018-09-22T19:22:58.533Z,9.63
2018-09-22T19:25:29.468Z,7.50
2018-09-22T19:28:07.536Z,7.60
2018-09-22T19:30:46.161Z,7.03
2018-09-22T19:33:25.293Z,7.53
2018-09-22T19:35:57.233Z,12.23
2018-09-22T19:38:29.997Z,5.23
2018-09-22T19:41:02.205Z,6.57
2018-09-22T19:43:36.053Z,6.97
2018-09-22T19:46:08.524Z,8.97
2018-09-22T19:48:47.063Z,11.83
2018-09-22T19:51:18.970Z,9.43
2018-09-22T19:53:48.897Z,8.23
2018-09-22T19:56:17.989Z,6.30
2018-09-22T19:58:46.680Z,9.13
2018-09-22T20:01:15.624Z,7.90
2018-09-22T20:03:44.355Z,5.53
2018-09-22T20:06:13.171Z,9.97
2018-09-22T20:08:44.885Z,7.53
2018-09-22T20:11:13.508Z,5.43
2018-09-22T20:13:42.260Z,6.47
2018-09-22T20:16:10.940Z,7.13
2018-09-22T20:18:39.438Z,10.83
2018-09-22T20:21:08.209Z,10.00
2018-09-22T20:23:36.714Z,11.00
2018-09-22T20:26:05.263Z,7.40
2018-09-22T20:28:34.101Z,8.83
2018-09-22T20:31:02.575Z,8.40
2018-09-22T20:33:31.129Z,7.93
2018-09-22T20:35:59.783Z,9.47
2018-09-22T20:38:29.761Z,6.97
2018-09-22T20:40:58.265Z,9.33
2018-09-22T20:43:26.978Z,8.50
2018-09-22T20:45:55.584Z,7.60
2018-09-22T20:48:24.981Z,10.63
2018-09-22T20:50:53.857Z,7.27
2018-09-22T20:53:22.326Z,7.77
2018-09-22T20:55:50.913Z,8.37
2018-09-22T20:58:20.184Z,7.20
2018-09-22T21:00:48.875Z,8.17
2018-09-22T21:03:17.536Z,8.63
2018-09-22T21:05:46.408Z,12.13
2018-09-22T21:08:15.896Z,9.47
2018-09-22T21:10:44.782Z,8.13
2018-09-22T21:13:13.500Z,8.23
2018-09-22T21:15:42.046Z,7.97
2018-09-22T21:18:10.600Z,5.83
2018-09-22T21:20:45.695Z,8.70
2018-09-22T21:23:14.260Z,12.60
2018-09-22T21:25:43.452Z,11.07
2018-09-22T21:28:12.403Z,8.70
2018-09-22T21:30:41.175Z,8.33
2018-09-22T21:33:10.035Z,8.97
2018-09-22T21:35:39.481Z,9.73
2018-09-22T21:38:08.389Z,7.70
2018-09-22T21:40:37.011Z,9.00
2018-09-22T21:43:07.004Z,7.80
2018-09-22T21:45:35.584Z,8.23
2018-09-22T21:48:04.632Z,9.17
2018-09-22T21:50:34.294Z,9.10
2018-09-22T21:53:02.900Z,10.57
2018-09-22T21:55:31.406Z,15.47
2018-09-22T21:58:00.048Z,9.63
2018-09-22T22:00:28.609Z,8.83
2018-09-22T22:02:57.408Z,10.33
2018-09-22T22:05:26.130Z,9.03
2018-09-22T22:07:54.657Z,8.23
2018-09-22T22:10:23.425Z,8.90
2018-09-22T22:12:52.386Z,7.00
2018-09-22T22:15:21.832Z,5.77
2018-09-22T22:17:50.433Z,8.50
2018-09-22T22:20:20.520Z,7.60
2018-09-22T22:22:48.957Z,9.20
2018-09-22T22:25:17.781Z,5.87
2018-09-22T22:27:47.109Z,8.33
2018-09-22T22:30:15.677Z,7.57
2018-09-22T22:32:44.204Z,7.90
2018-09-22T22:35:12.923Z,7.87
2018-09-22T22:37:41.518Z,6.73
2018-09-22T22:40:10.079Z,7.87
2018-09-22T22:42:38.868Z,7.53
2018-09-22T22:45:07.580Z,6.47
2018-09-22T22:47:36.255Z,9.17
2018-09-22T22:50:05.316Z,6.53
2018-09-22T22:52:33.810Z,5.93
2018-09-22T22:55:02.332Z,7.63
2018-09-22T22:57:31.053Z,9.23
2018-09-22T22:59:59.611Z,4.60
2018-09-22T23:02:28.298Z,9.10
2018-09-22T23:04:56.914Z,5.90
2018-09-22T23:07:25.472Z,6.57
2018-09-22T23:09:53.993Z,9.30
2018-09-22T23:12:23.017Z,6.20
2018-09-22T23:14:51.711Z,6.83
2018-09-22T23:17:20.397Z,7.07
2018-09-22T23:19:48.998Z,7.23
2018-09-22T23:22:17.529Z,6.63
2018-09-22T23:24:46.212Z,5.97
2018-09-22T23:27:15.875Z,9.87
2018-09-22T23:29:44.623Z,5.13
2018-09-22T23:32:14.008Z,7.07
2018-09-22T23:34:42.777Z,7.87
2018-09-22T23:37:11.357Z,5.87
2018-09-22T23:39:40.869Z,8.50
2018-09-22T23:42:09.527Z,7.80
2018-09-22T23:44:39.105Z,6.77
2018-09-22T23:47:07.692Z,8.47
2018-09-22T23:49:37.352Z,6.70
2018-09-22T23:52:05.908Z,5.27
2018-09-22T23:54:34.610Z,8.63
2018-09-22T23:57:03.233Z,8.17
2018-09-22T23:59:31.908Z,6.43
